Time;durP1;ratioP1;P1;durP2;ratioP2;P2;SDS_P1;SDS_P2;PMS_P1;PMS_P2;Temp;Humidity;BMP_temperature;BMP_pressure;BME280_temperature;BME280_humidity;BME280_pressure;Samples;Min_cycle;Max_cycle;Signal;HPM_P1;HPM_P2
2022/08/30 00:03:36;;;;;;;;;;;;;;;;;;5097555;28;20286;-87
2022/08/30 00:06:23;;;;;;;;;;;;;;;;;;5096615;28;19927;-86
2022/08/30 00:09:10;;;;;;;;;;;;;;;;;;5069553;28;20280;-86
2022/08/30 00:11:57;;;;;;;;;;;;;;;;;;5091535;28;19999;-85
2022/08/30 00:14:43;;;;;;;;;;;;;;;;;;5092023;28;20302;-87
2022/08/30 00:17:30;;;;;;;;;;;;;;;;;;5091083;28;19912;-86
2022/08/30 00:20:17;;;;;;;;;;;;;;;;;;5072197;28;20394;-86
2022/08/30 00:23:03;;;;;;;;;;;;;;;;;;5095354;28;20282;-85
2022/08/30 00:25:50;;;;;;;;;;;;;;;;;;5091134;28;19916;-87
2022/08/30 00:28:36;;;;;;;;;;;;;;;;;;5092733;28;19939;-86
2022/08/30 00:31:23;;;;;;;;;;;;;;;;;;5098164;27;19912;-85
2022/08/30 00:34:09;;;;;;;;;;;;;;;;;;5092083;28;19908;-84
2022/08/30 00:36:56;;;;;;;;;;;;;;;;;;5088471;28;19912;-86
2022/08/30 00:39:42;;;;;;;;;;;;;;;;;;5093508;28;19916;-87
2022/08/30 00:42:29;;;;;;;;;;;;;;;;;;5092517;28;19912;-88
2022/08/30 00:45:15;;;;;;;;;;;;;;;;;;5092692;28;19917;-88
2022/08/30 00:48:02;;;;;;;;;;;;;;;;;;5085282;28;19942;-87
2022/08/30 00:50:48;;;;;;;;;;;;;;;;;;5093180;28;19919;-87
2022/08/30 00:53:35;;;;;;;;;;;;;;;;;;5093782;28;19909;-88
2022/08/30 00:56:22;;;;;;;;;;;;;;;;;;5106063;27;19912;-88
2022/08/30 00:59:09;;;;;;;;;;;;;;;;;;5107560;28;19919;-89
2022/08/30 01:01:55;;;;;;;;;;;;;;;;;;5079898;28;20245;-89
2022/08/30 01:04:42;;;;;;;;;;;;;;;;;;5104698;28;19912;-89
2022/08/30 01:07:28;;;;;;;;;;;;;;;;;;5095694;28;19917;-89
2022/08/30 01:10:15;;;;;;;;;;;;;;;;;;5106006;28;19914;-89
2022/08/30 01:13:01;;;;;;;;;;;;;;;;;;5103028;28;19927;-86
2022/08/30 01:15:48;;;;;;;;;;;;;;;;;;5098465;28;19919;-86
2022/08/30 01:18:34;;;;;;;;;;;;;;;;;;5098651;28;20390;-89
2022/08/30 01:21:20;;;;;;;;;;;;;;;;;;5095679;28;19918;-91
2022/08/30 01:24:07;;;;;;;;;;;;;;;;;;5093433;28;20507;-88
2022/08/30 01:26:53;;;;;;;;;;;;;;;;;;5083337;28;19912;-90
2022/08/30 01:29:42;;;;;;;;;;;;;;;;;;5094097;28;19931;-87
2022/08/30 01:32:28;;;;;;;;;;;;;;;;;;5075641;28;20287;-85
2022/08/30 01:35:15;;;;;;;;;;;;;;;;;;5104037;28;19963;-86
2022/08/30 01:38:01;;;;;;;;;;;;;;;;;;5092817;28;19919;-89
2022/08/30 01:40:48;;;;;;;;;;;;;;;;;;5090858;28;19919;-88
2022/08/30 01:43:34;;;;;;;;;;;;;;;;;;5103816;28;19926;-88
2022/08/30 01:46:23;;;;;;;;;;;;;;;;;;5086710;28;19916;-88
2022/08/30 01:49:09;;;;;;;;;;;;;;;;;;5106330;28;20394;-88
2022/08/30 01:51:55;;;;;;;;;;;;;;;;;;5094112;28;19957;-89
2022/08/30 01:54:42;;;;;;;;;;;;;;;;;;5091352;28;20368;-89
2022/08/30 01:57:31;;;;;;;;;;;;;;;;;;5098078;28;20439;-88
2022/08/30 02:00:18;;;;;;;;;;;;;;;;;;5092658;28;19908;-87
2022/08/30 02:03:04;;;;;;;;;;;;;;;;;;5100960;28;19908;-87
2022/08/30 02:05:51;;;;;;;;;;;;;;;;;;5102014;28;19912;-92
2022/08/30 02:08:39;;;;;;;;;;;;;;;;;;5109798;28;19916;-87
2022/08/30 02:11:25;;;;;;;;;;;;;;;;;;5097391;28;20390;-87
2022/08/30 02:14:12;;;;;;;;;;;;;;;;;;5099200;28;19912;-88
2022/08/30 02:16:58;;;;;;;;;;;;;;;;;;5087245;28;19919;-87
2022/08/30 02:19:45;;;;;;;;;;;;;;;;;;5089329;28;19912;-89
2022/08/30 02:22:31;;;;;;;;;;;;;;;;;;5093015;28;19922;-89
2022/08/30 02:25:17;;;;;;;;;;;;;;;;;;5092508;28;19920;-87
2022/08/30 02:28:04;;;;;;;;;;;;;;;;;;5090395;28;19938;-87
2022/08/30 02:30:50;;;;;;;;;;;;;;;;;;5082331;28;19919;-88
2022/08/30 02:33:37;;;;;;;;;;;;;;;;;;5092478;28;20299;-87
2022/08/30 02:36:23;;;;;;;;;;;;;;;;;;5098216;27;19919;-88
2022/08/30 02:39:10;;;;;;;;;;;;;;;;;;5102299;28;19920;-88
2022/08/30 02:41:56;;;;;;;;;;;;;;;;;;5077828;28;19919;-87
2022/08/30 02:44:43;;;;;;;;;;;;;;;;;;5092464;28;19919;-87
2022/08/30 02:47:29;;;;;;;;;;;;;;;;;;5091961;28;20479;-88
2022/08/30 02:50:16;;;;;;;;;;;;;;;;;;5088384;28;19913;-88
2022/08/30 02:53:02;;;;;;;;;;;;;;;;;;5092980;28;19930;-88
2022/08/30 02:55:49;;;;;;;;;;;;;;;;;;5093855;28;19908;-87
2022/08/30 02:58:35;;;;;;;;;;;;;;;;;;5092275;28;20745;-88
2022/08/30 03:01:22;;;;;;;;;;;;;;;;;;5084158;28;19912;-88
2022/08/30 03:04:08;;;;;;;;;;;;;;;;;;5075523;28;19916;-89
2022/08/30 03:06:55;;;;;;;;;;;;;;;;;;5095201;28;19916;-90
2022/08/30 03:09:41;;;;;;;;;;;;;;;;;;5089470;28;19926;-88
2022/08/30 03:12:28;;;;;;;;;;;;;;;;;;5082680;28;19912;-87
2022/08/30 03:15:14;;;;;;;;;;;;;;;;;;5087255;28;19922;-85
2022/08/30 03:18:01;;;;;;;;;;;;;;;;;;5093388;28;19912;-84
2022/08/30 03:20:47;;;;;;;;;;;;;;;;;;5098566;28;19912;-87
2022/08/30 03:23:34;;;;;;;;;;;;;;;;;;5102227;28;19914;-88
2022/08/30 03:26:23;;;;;;;;;;;;;;;;;;5100831;28;19924;-85
2022/08/30 03:29:09;;;;;;;;;;;;;;;;;;5103247;28;19916;-86
2022/08/30 03:31:56;;;;;;;;;;;;;;;;;;5101426;28;19908;-86
2022/08/30 03:34:42;;;;;;;;;;;;;;;;;;5085798;28;19908;-88
2022/08/30 03:37:29;;;;;;;;;;;;;;;;;;5103920;28;19916;-86
2022/08/30 03:40:15;;;;;;;;;;;;;;;;;;5071047;28;19908;-86
2022/08/30 03:43:02;;;;;;;;;;;;;;;;;;5092625;28;19924;-85
2022/08/30 03:45:49;;;;;;;;;;;;;;;;;;5092389;28;19908;-85
2022/08/30 03:48:35;;;;;;;;;;;;;;;;;;5085935;28;19919;-87
2022/08/30 03:51:22;;;;;;;;;;;;;;;;;;5084320;28;20371;-87
2022/08/30 03:54:08;;;;;;;;;;;;;;;;;;5099316;28;19908;-86
2022/08/30 03:56:55;;;;;;;;;;;;;;;;;;5099929;28;19908;-86
2022/08/30 03:59:41;;;;;;;;;;;;;;;;;;5081379;28;19916;-87
2022/08/30 04:02:28;;;;;;;;;;;;;;;;;;5111972;28;19916;-90
2022/08/30 04:05:26;;;;;;;;;;;;;;;;;;5095000;28;19918;-89
2022/08/30 04:08:12;;;;;;;;;;;;;;;;;;5098737;28;20347;-88
2022/08/30 04:11:02;;;;;;;;;;;;;;;;;;5098387;28;19912;-87
2022/08/30 04:13:52;;;;;;;;;;;;;;;;;;5084388;28;19920;-88
2022/08/30 04:16:41;;;;;;;;;;;;;;;;;;5082758;28;19924;-87
2022/08/30 04:19:28;;;;;;;;;;;;;;;;;;5092252;28;19912;-86
2022/08/30 04:25:24;;;;;;;;;;;;;;;;;;5066065;28;19919;-87
2022/08/30 04:28:13;;;;;;;;;;;;;;;;;;5097323;28;19919;-89
2022/08/30 04:31:03;;;;;;;;;;;;;;;;;;5082678;28;19908;-90
2022/08/30 04:37:02;;;;;;;;;;;;;;;;;;5103925;28;19908;-86
2022/08/30 04:39:49;;;;;;;;;;;;;;;;;;5107988;28;19908;-87
2022/08/30 04:42:35;;;;;;;;;;;;;;;;;;5105982;28;19904;-86
2022/08/30 04:45:22;;;;;;;;;;;;;;;;;;5110277;28;20036;-85
2022/08/30 04:48:09;;;;;;;;;;;;;;;;;;5095655;28;19920;-86
2022/08/30 04:50:55;;;;;;;;;;;;;;;;;;5095902;28;20368;-85
2022/08/30 04:53:42;;;;;;;;;;;;;;;;;;5091450;28;19912;-91
2022/08/30 04:56:28;;;;;;;;;;;;;;;;;;5097690;28;19916;-91
2022/08/30 04:59:15;;;;;;;;;;;;;;;;;;5098645;28;20394;-91
2022/08/30 05:02:02;;;;;;;;;;;;;;;;;;5097817;28;19916;-92
2022/08/30 05:07:53;;;;;;;;;;;;;;;;;;5090162;28;20368;-89
2022/08/30 05:10:40;;;;;;;;;;;;;;;;;;5101302;28;19918;-84
2022/08/30 05:13:26;;;;;;;;;;;;;;;;;;5099066;28;19908;-90
2022/08/30 05:16:18;;;;;;;;;;;;;;;;;;5071034;28;20306;-88
2022/08/30 05:19:04;;;;;;;;;;;;;;;;;;5088751;28;19912;-87
2022/08/30 05:21:51;;;;;;;;;;;;;;;;;;5094876;28;19907;-86
2022/08/30 05:24:37;;;;;;;;;;;;;;;;;;5086651;28;19908;-86
2022/08/30 05:27:23;;;;;;;;;;;;;;;;;;5090434;28;19922;-85
2022/08/30 05:30:10;;;;;;;;;;;;;;;;;;5103529;28;19922;-90
2022/08/30 05:32:56;;;;;;;;;;;;;;;;;;5097397;28;19916;-88
2022/08/30 05:35:43;;;;;;;;;;;;;;;;;;5088917;28;19922;-89
2022/08/30 05:38:29;;;;;;;;;;;;;;;;;;5091798;28;19943;-87
2022/08/30 05:41:16;;;;;;;;;;;;;;;;;;5085968;28;19908;-88
2022/08/30 05:44:02;;;;;;;;;;;;;;;;;;5091025;28;19908;-88
2022/08/30 05:46:49;;;;;;;;;;;;;;;;;;5102920;28;19914;-89
2022/08/30 05:49:35;;;;;;;;;;;;;;;;;;5094546;28;19923;-89
2022/08/30 05:52:22;;;;;;;;;;;;;;;;;;5093295;28;19938;-87
2022/08/30 05:55:08;;;;;;;;;;;;;;;;;;5086987;28;19908;-86
2022/08/30 05:57:55;;;;;;;;;;;;;;;;;;5089334;28;19919;-87
2022/08/30 06:00:41;;;;;;;;;;;;;;;;;;5091705;28;19912;-86
2022/08/30 06:03:28;;;;;;;;;;;;;;;;;;5093573;28;19919;-87
2022/08/30 06:06:14;;;;;;;;;;;;;;;;;;5096004;28;19916;-88
2022/08/30 06:09:01;;;;;;;;;;;;;;;;;;5096747;28;20716;-88
2022/08/30 06:11:47;;;;;;;;;;;;;;;;;;5092530;28;19915;-88
2022/08/30 06:14:34;;;;;;;;;;;;;;;;;;5093132;28;19914;-88
2022/08/30 06:17:20;;;;;;;;;;;;;;;;;;5098475;28;19927;-83
2022/08/30 06:20:07;;;;;;;;;;;;;;;;;;5096022;28;19939;-86
2022/08/30 06:22:56;;;;;;;;;;;;;;;;;;5087472;28;20276;-87
2022/08/30 06:25:43;;;;;;;;;;;;;;;;;;5103150;28;19916;-87
2022/08/30 06:28:31;;;;;;;;;;;;;;;;;;5106327;28;19935;-88
2022/08/30 06:31:17;;;;;;;;;;;;;;;;;;5097573;28;20372;-88
2022/08/30 06:34:03;;;;;;;;;;;;;;;;;;5087263;28;19912;-87
2022/08/30 06:36:50;;;;;;;;;;;;;;;;;;5095737;28;20375;-88
2022/08/30 06:39:36;;;;;;;;;;;;;;;;;;5102060;28;19920;-87
2022/08/30 06:42:29;;;;;;;;;;;;;;;;;;5096692;28;19914;-89
2022/08/30 06:45:16;;;;;;;;;;;;;;;;;;5094400;28;19916;-90
2022/08/30 06:48:02;;;;;;;;;;;;;;;;;;5095720;28;19916;-89
2022/08/30 06:50:49;;;;;;;;;;;;;;;;;;5090493;28;19908;-88
2022/08/30 06:53:35;;;;;;;;;;;;;;;;;;5101951;28;19908;-90
2022/08/30 06:56:22;;;;;;;;;;;;;;;;;;5108321;28;19915;-91
2022/08/30 06:59:08;;;;;;;;;;;;;;;;;;5111710;28;19908;-89
2022/08/30 07:01:55;;;;;;;;;;;;;;;;;;5099463;28;19915;-86
2022/08/30 07:04:41;;;;;;;;;;;;;;;;;;5100993;28;19915;-89
2022/08/30 07:07:28;;;;;;;;;;;;;;;;;;5085744;28;20464;-87
2022/08/30 07:10:14;;;;;;;;;;;;;;;;;;5081380;28;20402;-78
2022/08/30 07:13:01;;;;;;;;;;;;;;;;;;5091887;28;19915;-89
2022/08/30 07:15:47;;;;;;;;;;;;;;;;;;5110867;28;20368;-91
2022/08/30 07:21:38;;;;;;;;;;;;;;;;;;5097669;28;20256;-89
2022/08/30 07:24:25;;;;;;;;;;;;;;;;;;5084001;28;19912;-88
2022/08/30 07:27:11;;;;;;;;;;;;;;;;;;5091434;28;19912;-89
2022/08/30 07:29:59;;;;;;;;;;;;;;;;;;5085397;28;19923;-88
2022/08/30 07:32:46;;;;;;;;;;;;;;;;;;5086669;28;19916;-88
2022/08/30 07:35:32;;;;;;;;;;;;;;;;;;5091806;28;19916;-88
2022/08/30 07:38:19;;;;;;;;;;;;;;;;;;5084348;28;19919;-89
2022/08/30 07:41:05;;;;;;;;;;;;;;;;;;5101930;28;19908;-89
2022/08/30 07:43:52;;;;;;;;;;;;;;;;;;5091966;28;19912;-88
2022/08/30 07:46:38;;;;;;;;;;;;;;;;;;5094198;28;19912;-88
2022/08/30 07:49:25;;;;;;;;;;;;;;;;;;5092830;28;20296;-88
2022/08/30 07:52:11;;;;;;;;;;;;;;;;;;5096776;28;19943;-88
2022/08/30 07:54:58;;;;;;;;;;;;;;;;;;5075135;28;19912;-88
2022/08/30 07:57:44;;;;;;;;;;;;;;;;;;5072458;28;19912;-89
2022/08/30 08:00:31;;;;;;;;;;;;;;;;;;5090532;28;20249;-88
2022/08/30 08:03:18;;;;;;;;;;;;;;;;;;5080274;28;19923;-88
2022/08/30 08:06:04;;;;;;;;;;;;;;;;;;5072298;28;20877;-88
2022/08/30 08:08:51;;;;;;;;;;;;;;;;;;5087916;28;19920;-89
2022/08/30 08:11:39;;;;;;;;;;;;;;;;;;5079088;28;19927;-89
2022/08/30 08:14:27;;;;;;;;;;;;;;;;;;5095210;28;20340;-89
2022/08/30 08:17:13;;;;;;;;;;;;;;;;;;5101154;28;20496;-88
2022/08/30 08:20:00;;;;;;;;;;;;;;;;;;5076878;28;19908;-87
2022/08/30 08:22:46;;;;;;;;;;;;;;;;;;5088738;28;20271;-89
2022/08/30 08:25:34;;;;;;;;;;;;;;;;;;5088259;28;19915;-89
2022/08/30 08:28:20;;;;;;;;;;;;;;;;;;5095110;28;19985;-87
2022/08/30 08:31:07;;;;;;;;;;;;;;;;;;5088971;28;20268;-89
2022/08/30 08:33:53;;;;;;;;;;;;;;;;;;5096477;28;19922;-89
2022/08/30 08:36:40;;;;;;;;;;;;;;;;;;5085353;28;20280;-88
2022/08/30 08:39:26;;;;;;;;;;;;;;;;;;5091021;28;19919;-89
2022/08/30 08:42:12;;;;;;;;;;;;;;;;;;5099964;28;20379;-90
2022/08/30 08:44:59;;;;;;;;;;;;;;;;;;5100186;28;19931;-88
2022/08/30 08:47:45;;;;;;;;;;;;;;;;;;5085598;28;19916;-89
2022/08/30 08:50:32;;;;;;;;;;;;;;;;;;5103954;28;19916;-89
2022/08/30 08:53:34;;;;;;;;;;;;;;;;;;5111404;28;19916;-91
2022/08/30 08:56:23;;;;;;;;;;;;;;;;;;5082869;28;19915;-89
2022/08/30 08:59:10;;;;;;;;;;;;;;;;;;5098409;28;19915;-89
2022/08/30 09:01:56;;;;;;;;;;;;;;;;;;5102149;28;19918;-89
2022/08/30 09:04:43;;;;;;;;;;;;;;;;;;5095556;28;20294;-89
2022/08/30 09:07:29;;;;;;;;;;;;;;;;;;5075273;28;19918;-89
2022/08/30 09:10:16;;;;;;;;;;;;;;;;;;5094907;28;19918;-90
2022/08/30 09:13:02;;;;;;;;;;;;;;;;;;5110900;28;19919;-90
2022/08/30 09:15:49;;;;;;;;;;;;;;;;;;5106080;28;19927;-88
2022/08/30 09:18:35;;;;;;;;;;;;;;;;;;5079867;28;19912;-90
2022/08/30 09:21:22;;;;;;;;;;;;;;;;;;5088383;28;20284;-88
2022/08/30 09:24:10;;;;;;;;;;;;;;;;;;5096785;28;19923;-89
2022/08/30 09:26:57;;;;;;;;;;;;;;;;;;5087989;28;19931;-89
2022/08/30 09:29:43;;;;;;;;;;;;;;;;;;5103672;28;19926;-88
2022/08/30 09:32:29;;;;;;;;;;;;;;;;;;5094619;28;20359;-90
2022/08/30 09:35:16;;;;;;;;;;;;;;;;;;5090460;28;19916;-88
2022/08/30 09:38:03;;;;;;;;;;;;;;;;;;5087399;28;19919;-87
2022/08/30 09:40:49;;;;;;;;;;;;;;;;;;5093706;28;19915;-89
2022/08/30 09:43:36;;;;;;;;;;;;;;;;;;5093907;28;19919;-87
2022/08/30 09:46:22;;;;;;;;;;;;;;;;;;5094588;28;19920;-89
2022/08/30 09:49:09;;;;;;;;;;;;;;;;;;5094244;28;20284;-89
2022/08/30 09:51:55;;;;;;;;;;;;;;;;;;5094796;28;19915;-89
2022/08/30 09:54:42;;;;;;;;;;;;;;;;;;5086841;28;19912;-89
2022/08/30 09:57:28;;;;;;;;;;;;;;;;;;5082129;28;19930;-90
2022/08/30 10:00:15;;;;;;;;;;;;;;;;;;5080924;28;19915;-88
2022/08/30 10:03:01;;;;;;;;;;;;;;;;;;5079997;28;20344;-88
2022/08/30 10:05:48;;;;;;;;;;;;;;;;;;5074576;28;19915;-89
2022/08/30 10:08:34;;;;;;;;;;;;;;;;;;5089712;28;20283;-89
2022/08/30 10:11:21;;;;;;;;;;;;;;;;;;5094867;28;19916;-89
2022/08/30 10:14:07;;;;;;;;;;;;;;;;;;5085158;28;19912;-90
2022/08/30 10:16:54;;;;;;;;;;;;;;;;;;5090402;28;19927;-88
2022/08/30 10:19:40;;;;;;;;;;;;;;;;;;5085926;28;19913;-89
2022/08/30 10:22:27;;;;;;;;;;;;;;;;;;5089268;28;19935;-88
2022/08/30 10:25:13;;;;;;;;;;;;;;;;;;5091513;28;19916;-89
2022/08/30 10:28:00;;;;;;;;;;;;;;;;;;5075084;28;19919;-91
2022/08/30 10:30:46;;;;;;;;;;;;;;;;;;5078146;28;19935;-89
2022/08/30 10:33:32;;;;;;;;;;;;;;;;;;5088514;28;19912;-89
2022/08/30 10:36:19;;;;;;;;;;;;;;;;;;5086202;28;20242;-88
2022/08/30 10:39:05;;;;;;;;;;;;;;;;;;5090004;28;19912;-89
2022/08/30 10:41:52;;;;;;;;;;;;;;;;;;5096007;28;19916;-89
2022/08/30 10:44:38;;;;;;;;;;;;;;;;;;5099404;28;19915;-89
2022/08/30 10:47:25;;;;;;;;;;;;;;;;;;5103579;28;19914;-88
2022/08/30 10:50:11;;;;;;;;;;;;;;;;;;5091383;28;19920;-89
2022/08/30 10:52:58;;;;;;;;;;;;;;;;;;5087128;28;19912;-88
2022/08/30 10:55:44;;;;;;;;;;;;;;;;;;5092113;28;20326;-88
2022/08/30 10:58:31;;;;;;;;;;;;;;;;;;5091943;28;19922;-87
2022/08/30 11:01:17;;;;;;;;;;;;;;;;;;5090080;28;19912;-88
2022/08/30 11:04:04;;;;;;;;;;;;;;;;;;5093148;28;19935;-87
2022/08/30 11:06:50;;;;;;;;;;;;;;;;;;5094743;28;19912;-87
2022/08/30 11:09:37;;;;;;;;;;;;;;;;;;5102241;28;19920;-89
2022/08/30 11:12:23;;;;;;;;;;;;;;;;;;5082565;28;19919;-87
2022/08/30 11:15:10;;;;;;;;;;;;;;;;;;5078286;28;19916;-89
2022/08/30 11:17:56;;;;;;;;;;;;;;;;;;5077176;28;19912;-89
2022/08/30 11:20:43;;;;;;;;;;;;;;;;;;5074752;28;19912;-89
2022/08/30 11:23:29;;;;;;;;;;;;;;;;;;5095664;28;20410;-89
2022/08/30 11:26:16;;;;;;;;;;;;;;;;;;5081979;28;19918;-88
2022/08/30 11:29:02;;;;;;;;;;;;;;;;;;5097785;28;19920;-90
2022/08/30 11:31:49;;;;;;;;;;;;;;;;;;5090868;28;19982;-89
2022/08/30 11:34:35;;;;;;;;;;;;;;;;;;5097713;28;19915;-89
2022/08/30 11:37:22;;;;;;;;;;;;;;;;;;5091296;28;19919;-88
2022/08/30 11:40:08;;;;;;;;;;;;;;;;;;5097149;28;19916;-90
2022/08/30 11:42:55;;;;;;;;;;;;;;;;;;5101307;28;19912;-89
2022/08/30 11:45:41;;;;;;;;;;;;;;;;;;5073760;28;19908;-89
2022/08/30 11:48:28;;;;;;;;;;;;;;;;;;5103098;28;19926;-90
2022/08/30 11:51:14;;;;;;;;;;;;;;;;;;5080283;28;19916;-89
2022/08/30 11:54:01;;;;;;;;;;;;;;;;;;5093647;28;20364;-89
2022/08/30 11:56:47;;;;;;;;;;;;;;;;;;5085243;28;19915;-89
2022/08/30 11:59:34;;;;;;;;;;;;;;;;;;5094436;28;20590;-90
2022/08/30 12:02:20;;;;;;;;;;;;;;;;;;5092486;28;19912;-90
2022/08/30 12:05:07;;;;;;;;;;;;;;;;;;5094922;28;19915;-90
2022/08/30 12:07:53;;;;;;;;;;;;;;;;;;5106736;28;19916;-89
2022/08/30 12:10:40;;;;;;;;;;;;;;;;;;5093473;28;19912;-89
2022/08/30 12:13:27;;;;;;;;;;;;;;;;;;5106210;28;19912;-90
2022/08/30 12:16:14;;;;;;;;;;;;;;;;;;5091717;28;20303;-90
2022/08/30 12:19:03;;;;;;;;;;;;;;;;;;5084420;28;19912;-90
2022/08/30 12:21:50;;;;;;;;;;;;;;;;;;5081803;28;19915;-89
2022/08/30 12:24:38;;;;;;;;;;;;;;;;;;5084489;28;19915;-89
2022/08/30 12:27:25;;;;;;;;;;;;;;;;;;5080554;28;19916;-90
2022/08/30 12:30:12;;;;;;;;;;;;;;;;;;5097939;28;19922;-89
2022/08/30 12:32:59;;;;;;;;;;;;;;;;;;5093625;28;19914;-88
2022/08/30 12:35:45;;;;;;;;;;;;;;;;;;5113830;27;19920;-90
2022/08/30 12:38:31;;;;;;;;;;;;;;;;;;5097307;28;19919;-89
2022/08/30 12:41:18;;;;;;;;;;;;;;;;;;5100414;28;20426;-89
2022/08/30 12:44:05;;;;;;;;;;;;;;;;;;5095754;28;19912;-90
2022/08/30 12:46:52;;;;;;;;;;;;;;;;;;5072583;28;19919;-90
2022/08/30 12:49:38;;;;;;;;;;;;;;;;;;5092903;28;19927;-90
2022/08/30 12:52:25;;;;;;;;;;;;;;;;;;5094216;28;19912;-90
2022/08/30 12:55:11;;;;;;;;;;;;;;;;;;5088921;28;19920;-90
2022/08/30 12:57:58;;;;;;;;;;;;;;;;;;5089944;28;20352;-90
2022/08/30 13:00:44;;;;;;;;;;;;;;;;;;5088240;28;19908;-90
2022/08/30 13:03:31;;;;;;;;;;;;;;;;;;5092676;28;19915;-87
2022/08/30 13:06:17;;;;;;;;;;;;;;;;;;5092271;28;19915;-87
2022/08/30 13:09:04;;;;;;;;;;;;;;;;;;5093388;28;20295;-88
2022/08/30 13:11:50;;;;;;;;;;;;;;;;;;5089282;28;19912;-89
2022/08/30 13:14:37;;;;;;;;;;;;;;;;;;5092030;28;19918;-88
2022/08/30 13:17:23;;;;;;;;;;;;;;;;;;5086356;28;19920;-88
2022/08/30 13:20:10;;;;;;;;;;;;;;;;;;5093485;28;20374;-87
2022/08/30 13:22:56;;;;;;;;;;;;;;;;;;5094023;28;19909;-88
2022/08/30 13:25:42;;;;;;;;;;;;;;;;;;5086059;28;19916;-88
2022/08/30 13:28:29;;;;;;;;;;;;;;;;;;5088762;28;19922;-88
2022/08/30 13:31:15;;;;;;;;;;;;;;;;;;5087347;28;20268;-88
2022/08/30 13:34:03;;;;;;;;;;;;;;;;;;5093140;28;20382;-88
2022/08/30 13:36:50;;;;;;;;;;;;;;;;;;5091038;28;19918;-86
2022/08/30 13:39:36;;;;;;;;;;;;;;;;;;5088419;28;19923;-87
2022/08/30 13:42:23;;;;;;;;;;;;;;;;;;5087529;28;19911;-88
2022/08/30 13:45:09;;;;;;;;;;;;;;;;;;5089269;28;19908;-85
2022/08/30 13:47:56;;;;;;;;;;;;;;;;;;5090054;28;19908;-86
2022/08/30 13:50:42;;;;;;;;;;;;;;;;;;5076087;28;19920;-86
2022/08/30 13:53:29;;;;;;;;;;;;;;;;;;5087732;28;19916;-87
2022/08/30 13:56:15;;;;;;;;;;;;;;;;;;5088941;28;20031;-85
2022/08/30 13:59:02;;;;;;;;;;;;;;;;;;5081389;28;19912;-87
2022/08/30 14:01:48;;;;;;;;;;;;;;;;;;5072079;28;19919;-85
2022/08/30 14:04:35;;;;;;;;;;;;;;;;;;5085321;28;19928;-82
2022/08/30 14:07:21;;;;;;;;;;;;;;;;;;5085972;28;20084;-81
2022/08/30 14:10:08;;;;;;;;;;;;;;;;;;5075065;28;20249;-82
2022/08/30 14:12:54;;;;;;;;;;;;;;;;;;5089882;28;19920;-81
2022/08/30 14:15:40;;;;;;;;;;;;;;;;;;5072920;28;20332;-81
2022/08/30 14:18:27;;;;;;;;;;;;;;;;;;5093941;28;19916;-81
2022/08/30 14:21:13;;;;;;;;;;;;;;;;;;5093847;28;19916;-80
2022/08/30 14:24:00;;;;;;;;;;;;;;;;;;5090315;28;19908;-80
2022/08/30 14:26:47;;;;;;;;;;;;;;;;;;5096758;28;19908;-81
2022/08/30 14:29:34;;;;;;;;;;;;;;;;;;5088625;28;20410;-81
2022/08/30 14:32:21;;;;;;;;;;;;;;;;;;5091443;28;19918;-82
2022/08/30 14:35:07;;;;;;;;;;;;;;;;;;5080769;28;19908;-81
2022/08/30 14:37:54;;;;;;;;;;;;;;;;;;5092332;28;19923;-81
2022/08/30 14:40:40;;;;;;;;;;;;;;;;;;5090686;28;19915;-81
2022/08/30 14:43:27;;;;;;;;;;;;;;;;;;5089797;28;19912;-80
2022/08/30 14:46:13;;;;;;;;;;;;;;;;;;5095314;28;20419;-82
2022/08/30 14:49:00;;;;;;;;;;;;;;;;;;5088694;28;19924;-80
2022/08/30 14:51:47;;;;;;;;;;;;;;;;;;5094165;28;20465;-79
2022/08/30 14:54:34;;;;;;;;;;;;;;;;;;5096714;28;19922;-83
2022/08/30 14:57:20;;;;;;;;;;;;;;;;;;5086559;28;20391;-84
2022/08/30 15:00:07;;;;;;;;;;;;;;;;;;5084233;28;19919;-80
2022/08/30 15:02:53;;;;;;;;;;;;;;;;;;5083712;28;19982;-80
2022/08/30 15:05:40;;;;;;;;;;;;;;;;;;5084416;28;19926;-81
2022/08/30 15:08:27;;;;;;;;;;;;;;;;;;5070719;28;20276;-80
2022/08/30 15:11:13;;;;;;;;;;;;;;;;;;5080796;28;19923;-81
2022/08/30 15:14:00;;;;;;;;;;;;;;;;;;5089092;28;19908;-80
2022/08/30 15:16:46;;;;;;;;;;;;;;;;;;5089060;28;19920;-79
2022/08/30 15:19:33;;;;;;;;;;;;;;;;;;5082996;28;20364;-80
2022/08/30 15:22:19;;;;;;;;;;;;;;;;;;5085835;28;19908;-80
2022/08/30 15:25:06;;;;;;;;;;;;;;;;;;5087870;28;19990;-79
2022/08/30 15:27:52;;;;;;;;;;;;;;;;;;5089001;28;20280;-81
2022/08/30 15:30:39;;;;;;;;;;;;;;;;;;5088040;28;19920;-80
2022/08/30 15:33:25;;;;;;;;;;;;;;;;;;5086692;28;20395;-79
2022/08/30 15:36:12;;;;;;;;;;;;;;;;;;5085772;28;19913;-80
2022/08/30 15:38:59;;;;;;;;;;;;;;;;;;5081375;28;20284;-79
2022/08/30 15:41:46;;;;;;;;;;;;;;;;;;5087332;28;19915;-78
2022/08/30 15:44:33;;;;;;;;;;;;;;;;;;5078794;28;19918;-79
2022/08/30 15:47:20;;;;;;;;;;;;;;;;;;5086040;28;20419;-79
2022/08/30 15:50:07;;;;;;;;;;;;;;;;;;5075010;28;19924;-79
2022/08/30 15:52:53;;;;;;;;;;;;;;;;;;5083413;28;19934;-79
2022/08/30 15:55:40;;;;;;;;;;;;;;;;;;5084450;28;19912;-79
2022/08/30 15:58:26;;;;;;;;;;;;;;;;;;5085495;28;19915;-80
2022/08/30 16:01:13;;;;;;;;;;;;;;;;;;5082354;28;19916;-78
2022/08/30 16:03:59;;;;;;;;;;;;;;;;;;5086925;28;19915;-79
2022/08/30 16:06:46;;;;;;;;;;;;;;;;;;5087165;28;19908;-78
2022/08/30 16:09:32;;;;;;;;;;;;;;;;;;5062594;28;19923;-80
2022/08/30 16:12:18;;;;;;;;;;;;;;;;;;5085403;28;19939;-80
2022/08/30 16:15:05;;;;;;;;;;;;;;;;;;5072274;28;19927;-80
2022/08/30 16:17:51;;;;;;;;;;;;;;;;;;5101192;27;19931;-79
2022/08/30 16:20:38;;;;;;;;;;;;;;;;;;5089090;28;19916;-80
2022/08/30 16:23:24;;;;;;;;;;;;;;;;;;5088880;28;19920;-82
2022/08/30 16:26:11;;;;;;;;;;;;;;;;;;5092490;28;19923;-80
2022/08/30 16:28:57;;;;;;;;;;;;;;;;;;5086871;28;19927;-80
2022/08/30 16:31:44;;;;;;;;;;;;;;;;;;5083976;28;20241;-81
2022/08/30 16:34:30;;;;;;;;;;;;;;;;;;5104017;27;19915;-81
2022/08/30 16:37:17;;;;;;;;;;;;;;;;;;5079542;28;20343;-79
2022/08/30 16:40:03;;;;;;;;;;;;;;;;;;5090826;28;19927;-80
2022/08/30 16:42:50;;;;;;;;;;;;;;;;;;5074471;28;19913;-79
2022/08/30 16:45:36;;;;;;;;;;;;;;;;;;5092563;28;19935;-81
2022/08/30 16:48:23;;;;;;;;;;;;;;;;;;5082695;28;19920;-82
2022/08/30 16:51:09;;;;;;;;;;;;;;;;;;5086811;28;19916;-80
2022/08/30 16:53:56;;;;;;;;;;;;;;;;;;5089814;28;19947;-81
2022/08/30 16:56:42;;;;;;;;;;;;;;;;;;5087923;28;19908;-82
2022/08/30 16:59:29;;;;;;;;;;;;;;;;;;5088087;28;19912;-81
2022/08/30 17:02:15;;;;;;;;;;;;;;;;;;5084899;28;19923;-79
2022/08/30 17:05:01;;;;;;;;;;;;;;;;;;5093484;28;20390;-82
2022/08/30 17:07:48;;;;;;;;;;;;;;;;;;5086850;28;19912;-81
2022/08/30 17:10:34;;;;;;;;;;;;;;;;;;5089549;28;19927;-79
2022/08/30 17:13:21;;;;;;;;;;;;;;;;;;5085783;28;19912;-81
2022/08/30 17:16:07;;;;;;;;;;;;;;;;;;5083590;28;19924;-82
2022/08/30 17:18:54;;;;;;;;;;;;;;;;;;5089963;28;19923;-84
2022/08/30 17:21:40;;;;;;;;;;;;;;;;;;5089790;28;19919;-85
2022/08/30 17:24:27;;;;;;;;;;;;;;;;;;5089103;28;20287;-84
2022/08/30 17:27:13;;;;;;;;;;;;;;;;;;5083596;28;19916;-83
2022/08/30 17:30:00;;;;;;;;;;;;;;;;;;5085629;28;19928;-82
2022/08/30 17:32:46;;;;;;;;;;;;;;;;;;5085418;28;19918;-83
2022/08/30 17:35:33;;;;;;;;;;;;;;;;;;5085855;28;19924;-81
2022/08/30 17:38:19;;;;;;;;;;;;;;;;;;5072786;28;19912;-82
2022/08/30 17:41:06;;;;;;;;;;;;;;;;;;5090855;28;19914;-81
2022/08/30 17:43:52;;;;;;;;;;;;;;;;;;5075348;28;19912;-81
2022/08/30 17:46:38;;;;;;;;;;;;;;;;;;5084935;28;19920;-82
2022/08/30 17:49:28;;;;;;;;;;;;;;;;;;5083636;28;19934;-84
2022/08/30 17:52:14;;;;;;;;;;;;;;;;;;5097197;27;19916;-86
2022/08/30 17:55:01;;;;;;;;;;;;;;;;;;5084456;28;19915;-85
2022/08/30 17:57:47;;;;;;;;;;;;;;;;;;5103224;28;19923;-81
2022/08/30 18:00:34;;;;;;;;;;;;;;;;;;5093260;28;19916;-82
2022/08/30 18:03:20;;;;;;;;;;;;;;;;;;5087108;28;20402;-83
2022/08/30 18:06:07;;;;;;;;;;;;;;;;;;5079106;28;19924;-81
2022/08/30 18:08:53;;;;;;;;;;;;;;;;;;5083218;28;20431;-83
2022/08/30 18:11:40;;;;;;;;;;;;;;;;;;5084108;28;19927;-81
2022/08/30 18:14:26;;;;;;;;;;;;;;;;;;5077042;28;20590;-81
2022/08/30 18:17:13;;;;;;;;;;;;;;;;;;5081091;28;19924;-79
2022/08/30 18:19:59;;;;;;;;;;;;;;;;;;5085727;28;20335;-77
2022/08/30 18:22:46;;;;;;;;;;;;;;;;;;5093182;28;19912;-81
2022/08/30 18:25:32;;;;;;;;;;;;;;;;;;5087090;28;19935;-79
2022/08/30 18:28:19;;;;;;;;;;;;;;;;;;5084943;28;19920;-79
2022/08/30 18:31:05;;;;;;;;;;;;;;;;;;5080036;28;19928;-77
2022/08/30 18:33:52;;;;;;;;;;;;;;;;;;5087350;28;20282;-79
2022/08/30 18:36:38;;;;;;;;;;;;;;;;;;5085760;28;19916;-81
2022/08/30 18:39:25;;;;;;;;;;;;;;;;;;5083881;28;19908;-81
2022/08/30 18:42:11;;;;;;;;;;;;;;;;;;5084878;28;19969;-80
2022/08/30 18:44:58;;;;;;;;;;;;;;;;;;5094154;28;19912;-79
2022/08/30 18:47:44;;;;;;;;;;;;;;;;;;5085826;28;19939;-80
2022/08/30 18:50:31;;;;;;;;;;;;;;;;;;5090761;28;19930;-80
2022/08/30 18:53:17;;;;;;;;;;;;;;;;;;5092125;28;19919;-80
2022/08/30 18:56:04;;;;;;;;;;;;;;;;;;5091942;28;20275;-79
2022/08/30 18:58:50;;;;;;;;;;;;;;;;;;5083976;28;19912;-80
2022/08/30 19:01:36;;;;;;;;;;;;;;;;;;5089983;28;19912;-79
2022/08/30 19:04:23;;;;;;;;;;;;;;;;;;5088061;28;20358;-79
2022/08/30 19:07:09;;;;;;;;;;;;;;;;;;5094167;28;19923;-79
2022/08/30 19:09:56;;;;;;;;;;;;;;;;;;5085140;28;20599;-80
2022/08/30 19:12:42;;;;;;;;;;;;;;;;;;5082078;28;19908;-80